TimeEST,TemperatureF,Dew PointF,Humidity,Sea Level PressureIn,VisibilityMPH,Wind Direction,Wind SpeedMPH,Gust SpeedMPH,PrecipitationIn,Events,Conditions,WindDirDegrees,DateUTC
12:39 AM,41.0,33.8,76,30.53,10.0,NE,5.8,-,N/A,,Mostly Cloudy,50,2012-11-19 05:39:00
12:53 AM,41.0,33.1,73,30.51,10.0,NE,6.9,-,N/A,,Overcast,40,2012-11-19 05:53:00
1:53 AM,39.9,33.1,77,30.50,10.0,NE,6.9,-,N/A,,Clear,40,2012-11-19 06:53:00
2:53 AM,39.0,33.1,79,30.49,10.0,NE,10.4,-,N/A,,Clear,50,2012-11-19 07:53:00
3:53 AM,39.0,33.1,79,30.48,10.0,NE,8.1,-,N/A,,Scattered Clouds,50,2012-11-19 08:53:00
4:53 AM,37.9,32.0,79,30.47,10.0,NE,9.2,-,N/A,,Partly Cloudy,40,2012-11-19 09:53:00
5:53 AM,37.0,30.9,79,30.46,10.0,NE,10.4,-,N/A,,Clear,40,2012-11-19 10:53:00
6:53 AM,36.0,30.9,82,30.45,10.0,NE,8.1,-,N/A,,Clear,40,2012-11-19 11:53:00
7:53 AM,36.0,30.9,82,30.45,10.0,NE,8.1,-,N/A,,Clear,50,2012-11-19 12:53:00
8:53 AM,39.0,32.0,76,30.44,10.0,NE,10.4,-,N/A,,Clear,40,2012-11-19 13:53:00
9:53 AM,43.0,34.0,71,30.43,10.0,ENE,8.1,-,N/A,,Clear,60,2012-11-19 14:53:00
10:53 AM,45.0,36.0,71,30.42,10.0,NE,6.9,-,N/A,,Clear,50,2012-11-19 15:53:00
11:53 AM,48.0,37.0,66,30.38,10.0,East,8.1,-,N/A,,Partly Cloudy,80,2012-11-19 16:53:00
12:53 PM,50.0,37.9,63,30.35,10.0,Variable,5.8,-,N/A,,Clear,0,2012-11-19 17:53:00
1:48 PM,50.0,37.4,62,30.34,10.0,ENE,10.4,-,N/A,,Mostly Cloudy,70,2012-11-19 18:48:00
1:53 PM,50.0,37.9,63,30.33,10.0,NE,9.2,-,N/A,,Mostly Cloudy,50,2012-11-19 18:53:00
2:53 PM,50.0,37.9,63,30.31,10.0,East,9.2,-,N/A,,Overcast,80,2012-11-19 19:53:00
3:53 PM,48.9,37.9,66,30.31,10.0,ENE,5.8,-,N/A,,Overcast,60,2012-11-19 20:53:00
4:53 PM,48.0,37.0,66,30.31,10.0,ENE,8.1,-,N/A,,Overcast,60,2012-11-19 21:53:00
5:53 PM,46.9,37.0,68,30.30,10.0,ENE,6.9,-,N/A,,Overcast,60,2012-11-19 22:53:00
6:22 PM,46.4,37.4,71,30.31,10.0,NE,5.8,-,N/A,,Overcast,50,2012-11-19 23:22:00
6:53 PM,46.9,36.0,66,30.30,10.0,NE,5.8,-,N/A,,Overcast,40,2012-11-19 23:53:00
7:29 PM,46.4,37.4,71,30.30,10.0,NE,5.8,-,N/A,,Overcast,40,2012-11-20 00:29:00
7:53 PM,46.9,37.0,68,30.28,10.0,NE,6.9,-,N/A,,Overcast,50,2012-11-20 00:53:00
8:53 PM,46.0,37.0,71,30.27,10.0,NE,5.8,-,N/A,,Overcast,50,2012-11-20 01:53:00
10:53 PM,46.0,37.9,73,30.24,10.0,Calm,Calm,-,N/A,,Overcast,0,2012-11-20 03:53:00
11:53 PM,46.0,37.9,73,30.23,10.0,Calm,Calm,-,N/A,,Overcast,0,2012-11-20 04:53:00